Pagina principale
METAR-TAF:

METAR-TAF

Aeroporti :

Aeroporto di Lubiana-Brnik

Lubiana, Slovenia

latitudine: 46-13N, longitudine: 014-29E, altezza: 385 m

Osservazione

Il bollettino è stato emesso 38 minuti fa, alle 16:30 UTC
Vento 4 kt da nord/nord-ovest, variando fra ovest/nord-ovest e nord
Temperature 14°C
Umidità 58%
Pressione 1016 hPa
Visibilità 10 km o più
Poco nuvoloso ad un'altezza di 5000 ft, Cumulo congesto.
Nuvoloso ad un'altezza di 6500 ft
rovesci di pioggia

METAR: LJLJ 311630Z 33004KT 290V010 9999 -SHRA FEW050TCU BKN065 14/06 Q1016 NOSIG

Ora: 19:08 (17:08 UTC)

Previsione

Il bollettino è stato emesso 6 ore e 8 minuti fa, alle 11:00 UTC
Previsione valida dal 31 alle 12 UTC al 01 alle 12 UTC
Vento 5 kt da sud-est
Visibilità 10 km o più
Poco nuvoloso ad un'altezza di 4000 ft
Temporaneamente
dal 31 alle 14 UTC al 01 alle 02 UTC
pioggia debole

TAF: LJLJ 311100Z 3112/0112 13005KT 9999 FEW040 TEMPO 3114/0102 -RA

Osservazioni e previsioni meteorologiche di più di 4000 aeroporti (messaggi METAR e TAF).

Le stazioni disponibili sono rappresentate dai dischi gialli e rossi sulla carta.

Puntare il mouse per vedere il nome della stazione.

Clicca sopra per visualizzare le osservazioni e previsioni meteorologiche.

Per cambiare la mappa : fare clic sui pulsanti verdi con una croce nera per ingrandire, il pulsante verde con un trattino per diminuire, o sulla freccia verde per le mappe adiacenti.


METAR-TAF: